createdAt,value
2022-08-14T00:00:19.551Z,3.80
2022-08-14T00:02:47.863Z,3.95
2022-08-14T00:05:16.216Z,4.07
2022-08-14T00:07:43.954Z,4.35
2022-08-14T00:10:52.317Z,3.80
2022-08-14T00:13:06.866Z,4.65
2022-08-14T00:15:43.653Z,3.97
2022-08-14T00:18:14.576Z,3.90
2022-08-14T00:20:58.360Z,4.35
2022-08-14T00:23:26.989Z,4.00
2022-08-14T00:26:06.027Z,4.05
2022-08-14T00:28:35.420Z,3.92
2022-08-14T00:31:03.405Z,4.00
2022-08-14T00:33:52.186Z,4.00
2022-08-14T00:36:39.333Z,4.10
2022-08-14T00:39:09.506Z,3.75
2022-08-14T00:41:38.777Z,3.83
2022-08-14T00:44:13.247Z,3.85
2022-08-14T00:46:42.056Z,4.00
2022-08-14T00:49:11.581Z,4.20
2022-08-14T00:51:44.491Z,4.07
2022-08-14T00:54:21.091Z,3.67
2022-08-14T00:56:50.080Z,3.92
2022-08-14T00:59:18.086Z,3.60
2022-08-14T01:01:46.345Z,3.92
2022-08-14T01:04:51.352Z,4.03
2022-08-14T01:09:30.064Z,3.42
2022-08-14T01:12:03.551Z,3.55
2022-08-14T01:14:31.466Z,3.63
2022-08-14T01:16:59.961Z,3.83
2022-08-14T01:19:46.711Z,3.60
2022-08-14T01:22:18.627Z,3.63
2022-08-14T01:24:47.061Z,3.85
2022-08-14T01:27:14.846Z,3.58
2022-08-14T01:29:58.698Z,3.65
2022-08-14T01:32:30.093Z,4.10
2022-08-14T01:35:20.562Z,3.70
2022-08-14T01:37:56.602Z,4.20
2022-08-14T01:40:25.572Z,3.53
2022-08-14T01:43:02.764Z,3.67
2022-08-14T01:45:40.085Z,3.75
2022-08-14T01:48:13.495Z,3.65
2022-08-14T01:50:42.038Z,3.80
2022-08-14T01:53:09.791Z,3.95
2022-08-14T01:55:40.225Z,3.55
2022-08-14T01:58:19.830Z,3.65
2022-08-14T02:00:54.452Z,4.00
2022-08-14T02:03:23.479Z,3.92
2022-08-14T02:05:51.203Z,3.80
2022-08-14T02:08:22.187Z,4.00
2022-08-14T02:11:10.333Z,3.88
2022-08-14T02:13:38.293Z,3.63
2022-08-14T02:16:21.864Z,3.80
2022-08-14T02:18:50.719Z,3.63
2022-08-14T02:21:19.552Z,3.95
2022-08-14T02:23:53.691Z,3.42
2022-08-14T02:26:25.156Z,3.38
2022-08-14T02:29:00.378Z,3.63
2022-08-14T02:31:36.381Z,3.60
2022-08-14T02:34:22.137Z,3.72
2022-08-14T02:37:05.097Z,3.75
2022-08-14T02:39:34.626Z,3.80
2022-08-14T02:42:04.871Z,3.83
2022-08-14T02:44:39.716Z,3.80
2022-08-14T02:47:15.064Z,3.67
2022-08-14T02:49:50.517Z,3.42
2022-08-14T02:52:56.754Z,3.53
2022-08-14T02:55:10.616Z,3.70
2022-08-14T02:57:39.825Z,3.75
2022-08-14T03:00:10.224Z,3.90
2022-08-14T03:02:56.399Z,3.42
2022-08-14T03:05:32.907Z,3.78
2022-08-14T03:08:04.300Z,3.50
2022-08-14T03:10:33.362Z,3.88
2022-08-14T03:13:04.772Z,3.53
2022-08-14T03:15:34.360Z,3.33
2022-08-14T03:18:02.187Z,3.58
2022-08-14T03:20:30.432Z,3.45
2022-08-14T03:23:03.209Z,3.65
2022-08-14T03:25:34.354Z,3.95
2022-08-14T03:28:07.212Z,3.78
2022-08-14T03:30:39.029Z,3.38
2022-08-14T03:33:08.370Z,3.95
2022-08-14T03:35:40.261Z,3.75
2022-08-14T03:39:13.948Z,3.50
2022-08-14T03:41:14.618Z,4.32
2022-08-14T03:43:42.447Z,3.75
2022-08-14T03:46:52.183Z,3.90
2022-08-14T03:49:04.533Z,3.95
2022-08-14T03:51:32.336Z,3.65
2022-08-14T03:54:00.047Z,3.78
2022-08-14T03:56:27.931Z,3.60
2022-08-14T03:58:56.068Z,3.67
2022-08-14T04:01:29.326Z,3.63
2022-08-14T04:04:07.904Z,3.75
2022-08-14T04:06:35.918Z,3.60
2022-08-14T04:09:16.815Z,3.88
2022-08-14T04:11:45.451Z,3.50
2022-08-14T04:14:16.614Z,3.20
2022-08-14T04:16:48.305Z,3.55
2022-08-14T04:19:20.577Z,3.40
2022-08-14T04:22:02.049Z,3.40
2022-08-14T04:24:38.169Z,3.40
2022-08-14T04:27:07.440Z,3.40
2022-08-14T04:29:38.279Z,4.05
2022-08-14T04:33:02.433Z,3.42
2022-08-14T04:34:55.284Z,3.30
2022-08-14T04:37:40.526Z,3.53
2022-08-14T04:40:27.870Z,4.03
2022-08-14T04:43:14.451Z,3.97
2022-08-14T04:45:45.407Z,3.75
2022-08-14T04:48:36.643Z,4.03
2022-08-14T04:51:07.028Z,3.83
2022-08-14T04:53:36.261Z,3.80
2022-08-14T04:56:31.302Z,4.25
2022-08-14T04:58:58.494Z,3.80
2022-08-14T05:01:29.461Z,4.55
2022-08-14T05:04:08.377Z,4.10
2022-08-14T05:06:38.989Z,3.97
2022-08-14T05:09:13.859Z,4.00
2022-08-14T05:11:42.619Z,3.83
2022-08-14T05:14:16.670Z,4.22
2022-08-14T05:17:01.536Z,4.50
2022-08-14T05:19:32.761Z,4.47
2022-08-14T05:22:18.963Z,4.22
2022-08-14T05:24:48.767Z,4.05
2022-08-14T05:27:22.253Z,3.80
2022-08-14T05:29:50.352Z,3.80
2022-08-14T05:32:18.125Z,4.20
2022-08-14T05:34:46.108Z,3.97
2022-08-14T05:37:15.321Z,3.70
2022-08-14T05:39:43.461Z,3.80
2022-08-14T05:42:21.730Z,4.40
2022-08-14T05:44:55.635Z,3.90
2022-08-14T05:47:23.659Z,3.83
2022-08-14T05:49:51.665Z,4.22
2022-08-14T05:52:38.303Z,4.18
2022-08-14T05:55:06.739Z,4.10
2022-08-14T05:57:34.485Z,4.22
2022-08-14T06:00:02.408Z,4.18
2022-08-14T06:02:33.031Z,3.70
2022-08-14T06:05:02.971Z,4.00
2022-08-14T06:07:30.817Z,4.10
2022-08-14T06:10:03.309Z,4.20
2022-08-14T06:12:56.796Z,4.00
2022-08-14T06:15:20.608Z,4.55
2022-08-14T06:17:58.670Z,4.32
2022-08-14T06:20:28.274Z,3.67
2022-08-14T06:22:56.571Z,4.78
2022-08-14T06:25:24.877Z,5.15
2022-08-14T06:27:52.867Z,5.05
2022-08-14T06:30:20.593Z,4.50
2022-08-14T06:32:48.631Z,5.72
2022-08-14T06:35:20.976Z,5.45
2022-08-14T06:37:48.971Z,4.88
2022-08-14T06:40:26.823Z,4.95
2022-08-14T06:42:56.395Z,4.70
2022-08-14T06:45:26.342Z,4.60
2022-08-14T06:47:54.773Z,3.80
2022-08-14T06:50:28.178Z,4.05
2022-08-14T06:52:56.264Z,4.57
2022-08-14T06:55:27.917Z,5.25
2022-08-14T06:57:57.602Z,5.20
2022-08-14T07:00:26.915Z,4.72
2022-08-14T07:03:13.207Z,5.60
2022-08-14T07:05:55.804Z,5.75
2022-08-14T08:00:31.243Z,4.00
2022-08-14T08:03:00.327Z,4.10
2022-08-14T08:05:28.336Z,4.03
2022-08-14T08:07:56.074Z,4.20
2022-08-14T08:10:57.122Z,4.45
2022-08-14T08:13:22.189Z,4.15
2022-08-14T08:15:53.938Z,4.25
2022-08-14T08:18:28.908Z,4.10
2022-08-14T08:20:59.696Z,4.00
2022-08-14T08:23:34.367Z,4.20
2022-08-14T08:26:08.103Z,4.03
2022-08-14T08:28:36.050Z,4.15
2022-08-14T08:31:03.841Z,4.20
2022-08-14T08:33:37.211Z,3.95
2022-08-14T08:36:06.038Z,4.32
2022-08-14T08:39:17.487Z,4.10
2022-08-14T08:41:24.797Z,4.32
2022-08-14T08:47:07.762Z,4.07
2022-08-14T08:52:40.641Z,4.82
2022-08-14T08:55:10.657Z,4.00
2022-08-14T09:00:48.748Z,4.88
2022-08-14T09:03:17.750Z,4.30
2022-08-14T09:05:48.138Z,4.40
2022-08-14T09:08:30.394Z,4.90
2022-08-14T09:10:59.856Z,4.80
2022-08-14T09:13:30.623Z,4.70
2022-08-14T09:16:06.684Z,4.63
2022-08-14T09:18:46.694Z,4.78
2022-08-14T09:21:16.426Z,4.90
2022-08-14T09:24:26.269Z,5.10
2022-08-14T09:26:32.348Z,4.90
2022-08-14T09:29:01.414Z,5.05
2022-08-14T09:31:42.861Z,4.95
2022-08-14T09:34:27.009Z,5.22
2022-08-14T09:37:13.971Z,5.13
2022-08-14T09:39:41.746Z,5.18
2022-08-14T09:42:17.445Z,5.22
2022-08-14T09:44:49.616Z,5.75
2022-08-14T09:47:17.514Z,5.43
2022-08-14T09:49:53.302Z,5.78
2022-08-14T09:52:33.055Z,5.90
2022-08-14T09:55:02.882Z,5.55
2022-08-14T09:57:31.446Z,5.70
2022-08-14T09:59:59.454Z,5.85
2022-08-14T10:02:28.529Z,5.38
2022-08-14T10:04:56.855Z,5.82
2022-08-14T10:07:24.957Z,5.57
2022-08-14T10:09:59.774Z,5.82
2022-08-14T10:12:30.616Z,5.25
2022-08-14T10:15:01.155Z,5.75
2022-08-14T10:17:38.371Z,5.40
2022-08-14T10:20:08.389Z,5.75
2022-08-14T10:23:12.612Z,6.00
2022-08-14T10:25:43.570Z,6.05
2022-08-14T10:28:39.265Z,6.20
2022-08-14T10:31:03.141Z,6.45
2022-08-14T10:33:32.051Z,5.65
2022-08-14T10:36:00.831Z,5.57
2022-08-14T10:38:28.891Z,5.97
2022-08-14T10:40:59.388Z,5.45
2022-08-14T10:43:31.773Z,5.55
2022-08-14T10:46:22.105Z,5.43
2022-08-14T10:48:52.113Z,5.55
2022-08-14T10:51:22.521Z,5.80
2022-08-14T10:53:54.335Z,5.20
2022-08-14T10:56:33.773Z,6.13
2022-08-14T10:59:02.444Z,6.18
2022-08-14T11:01:30.158Z,5.53
2022-08-14T11:04:00.786Z,5.43
2022-08-14T11:06:28.800Z,5.88
2022-08-14T11:08:56.929Z,6.00
2022-08-14T11:11:25.219Z,5.97
2022-08-14T11:13:57.530Z,5.70
2022-08-14T11:16:26.973Z,5.68
2022-08-14T11:18:59.654Z,6.00
2022-08-14T11:21:30.296Z,5.38
2022-08-14T11:24:01.994Z,5.80
2022-08-14T11:26:50.745Z,5.50
2022-08-14T11:29:20.945Z,5.75
2022-08-14T11:31:52.283Z,5.65
2022-08-14T11:34:32.367Z,5.68
2022-08-14T11:37:18.028Z,5.57
2022-08-14T11:39:51.259Z,5.45
2022-08-14T11:42:56.483Z,5.93
2022-08-14T11:45:11.289Z,5.65
2022-08-14T11:48:12.761Z,5.72
2022-08-14T11:50:37.921Z,5.25
2022-08-14T11:53:06.885Z,5.57
2022-08-14T11:55:35.171Z,5.97
2022-08-14T11:58:03.280Z,5.88
2022-08-14T12:00:35.981Z,5.55
2022-08-14T12:03:08.083Z,5.43
2022-08-14T12:05:39.737Z,5.40
2022-08-14T12:08:13.321Z,5.82
2022-08-14T12:10:43.070Z,5.47
2022-08-14T12:13:11.075Z,5.45
2022-08-14T12:15:44.634Z,5.43
2022-08-14T12:18:19.692Z,5.40
2022-08-14T12:20:52.313Z,5.20
2022-08-14T12:23:21.451Z,5.57
2022-08-14T12:26:01.355Z,5.15
2022-08-14T12:28:59.413Z,5.72
2022-08-14T12:31:26.816Z,5.50
2022-08-14T12:33:54.763Z,5.65
2022-08-14T12:36:22.659Z,5.30
2022-08-14T12:38:54.429Z,5.28
2022-08-14T12:41:24.056Z,5.70
2022-08-14T12:43:53.772Z,5.10
2022-08-14T12:46:27.391Z,5.60
2022-08-14T12:48:56.725Z,6.07
2022-08-14T12:51:27.340Z,5.53
2022-08-14T12:53:59.300Z,5.45
2022-08-14T12:56:33.432Z,5.55
2022-08-14T12:59:02.372Z,4.93
2022-08-14T13:02:01.905Z,5.82
2022-08-14T13:04:22.937Z,5.57
2022-08-14T13:06:51.789Z,5.13
2022-08-14T13:09:19.781Z,5.43
2022-08-14T13:11:49.491Z,5.30
2022-08-14T13:14:29.873Z,5.30
2022-08-14T13:16:58.724Z,5.22
2022-08-14T13:19:28.379Z,5.55
2022-08-14T13:22:04.908Z,5.43
2022-08-14T13:24:37.191Z,5.22
2022-08-14T13:27:05.225Z,5.65
2022-08-14T13:29:34.165Z,5.10
2022-08-14T13:32:02.807Z,5.47
2022-08-14T13:34:32.812Z,5.00
2022-08-14T13:37:04.262Z,5.25
2022-08-14T13:39:36.147Z,4.93
2022-08-14T13:42:05.268Z,5.07
2022-08-14T13:44:36.374Z,4.97
2022-08-14T13:47:09.796Z,5.18
2022-08-14T13:49:56.986Z,4.93
2022-08-14T13:52:51.828Z,5.55
2022-08-14T13:55:14.232Z,5.05
2022-08-14T13:57:49.451Z,5.38
2022-08-14T14:00:21.894Z,5.22
2022-08-14T14:03:00.671Z,4.90
2022-08-14T14:05:53.429Z,5.40
2022-08-14T14:08:19.093Z,5.50
2022-08-14T14:11:04.201Z,5.40
2022-08-14T14:13:32.324Z,5.30
2022-08-14T14:16:04.804Z,5.30
2022-08-14T14:18:35.270Z,5.32
2022-08-14T14:21:03.320Z,5.05
2022-08-14T14:23:32.461Z,5.20
2022-08-14T14:26:00.505Z,5.07
2022-08-14T14:28:28.866Z,5.22
2022-08-14T14:31:01.108Z,5.07
2022-08-14T14:33:49.551Z,5.05
2022-08-14T14:36:20.852Z,4.88
2022-08-14T14:38:51.613Z,4.57
2022-08-14T14:41:21.226Z,4.88
2022-08-14T14:43:51.617Z,4.75
2022-08-14T14:46:19.631Z,5.20
2022-08-14T14:48:54.723Z,5.22
2022-08-14T14:51:22.830Z,5.30
2022-08-14T14:53:52.505Z,5.30
2022-08-14T14:56:51.033Z,4.95
2022-08-14T14:59:08.059Z,5.10
2022-08-14T15:01:38.253Z,4.75
2022-08-14T15:04:20.696Z,4.95
2022-08-14T15:06:48.960Z,5.15
2022-08-14T15:09:17.750Z,5.50
2022-08-14T15:11:45.998Z,5.18
2022-08-14T15:14:56.865Z,4.70
2022-08-14T15:17:03.400Z,5.10
2022-08-14T15:19:34.124Z,4.95
2022-08-14T15:22:02.331Z,5.47
2022-08-14T15:24:30.043Z,5.00
2022-08-14T15:26:59.852Z,5.35
2022-08-14T15:29:27.611Z,4.90
2022-08-14T15:31:55.391Z,5.15
2022-08-14T15:34:43.882Z,5.03
2022-08-14T15:37:16.531Z,4.70
2022-08-14T15:42:27.157Z,4.60
2022-08-14T15:44:57.860Z,4.97
2022-08-14T15:47:29.905Z,4.97
2022-08-14T15:49:59.485Z,4.90
2022-08-14T15:52:33.149Z,5.43
2022-08-14T15:55:07.591Z,4.95
2022-08-14T15:57:35.439Z,5.18
2022-08-14T16:00:21.262Z,5.45
2022-08-14T16:03:09.683Z,4.95
2022-08-14T16:05:43.967Z,5.13
2022-08-14T16:08:29.681Z,5.22
2022-08-14T16:10:58.343Z,4.93
2022-08-14T16:13:41.766Z,5.00
2022-08-14T16:16:34.412Z,4.95
2022-08-14T16:18:59.634Z,4.88
2022-08-14T16:21:31.560Z,4.90
2022-08-14T16:24:27.615Z,5.20
2022-08-14T16:27:00.297Z,5.25
2022-08-14T16:29:29.994Z,4.68
2022-08-14T16:31:57.976Z,5.00
2022-08-14T16:34:46.221Z,4.80
2022-08-14T16:37:13.440Z,4.45
2022-08-14T16:39:41.914Z,4.60
2022-08-14T16:42:10.544Z,5.03
2022-08-14T16:44:58.305Z,4.85
2022-08-14T16:47:34.861Z,5.00
2022-08-14T16:50:08.555Z,4.78
2022-08-14T16:52:44.285Z,4.88
2022-08-14T16:55:13.900Z,4.78
2022-08-14T16:57:42.812Z,4.90
2022-08-14T17:00:28.105Z,4.90
2022-08-14T17:02:56.527Z,5.03
2022-08-14T17:05:26.892Z,4.85
2022-08-14T17:07:56.867Z,4.60
2022-08-14T17:10:28.271Z,4.85
2022-08-14T17:12:57.171Z,4.82
2022-08-14T17:15:26.616Z,4.88
2022-08-14T17:17:58.271Z,4.78
2022-08-14T17:20:54.096Z,4.80
2022-08-14T17:23:16.140Z,4.53
2022-08-14T17:25:49.451Z,4.90
2022-08-14T17:28:49.847Z,4.88
2022-08-14T17:31:08.009Z,4.90
2022-08-14T17:33:52.688Z,4.78
2022-08-14T17:36:21.311Z,4.80
2022-08-14T17:39:00.044Z,5.20
2022-08-14T17:41:36.036Z,5.35
2022-08-14T17:44:04.151Z,4.80
2022-08-14T17:46:36.060Z,4.90
2022-08-14T17:49:15.913Z,4.55
2022-08-14T17:51:53.541Z,4.57
2022-08-14T17:54:34.523Z,5.20
2022-08-14T17:57:02.794Z,5.00
2022-08-14T17:59:38.555Z,4.75
2022-08-14T18:02:09.732Z,4.68
2022-08-14T18:04:44.464Z,4.28
2022-08-14T18:08:32.642Z,4.53
2022-08-14T18:10:56.105Z,4.63
2022-08-14T18:13:50.012Z,4.80
2022-08-14T18:16:19.651Z,4.47
2022-08-14T18:18:49.648Z,4.90
2022-08-14T18:21:24.074Z,4.63
2022-08-14T18:24:28.299Z,4.47
2022-08-14T18:27:01.903Z,4.45
2022-08-14T18:29:31.693Z,4.70
2022-08-14T18:32:00.005Z,4.68
2022-08-14T18:34:32.262Z,4.45
2022-08-14T18:37:09.559Z,4.95
2022-08-14T18:40:02.963Z,4.65
2022-08-14T18:42:31.822Z,4.30
2022-08-14T18:45:01.013Z,4.60
2022-08-14T18:47:56.596Z,4.40
2022-08-14T18:50:26.839Z,4.70
2022-08-14T18:52:58.660Z,4.78
2022-08-14T18:55:26.875Z,4.55
2022-08-14T18:57:58.204Z,4.55
2022-08-14T19:00:32.199Z,4.45
2022-08-14T19:03:01.137Z,4.13
2022-08-14T19:05:50.181Z,4.35
2022-08-14T19:08:18.818Z,4.50
2022-08-14T19:10:51.247Z,4.55
2022-08-14T19:13:20.404Z,4.70
2022-08-14T19:15:56.304Z,4.38
2022-08-14T19:18:26.445Z,4.85
2022-08-14T19:20:58.248Z,4.38
2022-08-14T19:23:42.035Z,4.25
2022-08-14T19:26:34.197Z,4.38
2022-08-14T19:28:59.356Z,4.32
2022-08-14T19:31:37.154Z,4.20
2022-08-14T19:34:10.030Z,3.90
2022-08-14T19:37:08.750Z,4.35
2022-08-14T19:39:42.508Z,4.15
2022-08-14T19:42:14.434Z,4.32
2022-08-14T19:44:56.383Z,4.38
2022-08-14T19:47:25.581Z,4.10
2022-08-14T19:50:37.730Z,3.72
2022-08-14T19:52:57.398Z,4.07
2022-08-14T19:55:34.218Z,4.38
2022-08-14T19:58:02.706Z,4.07
2022-08-14T20:00:31.596Z,4.30
2022-08-14T20:03:09.899Z,4.22
2022-08-14T20:05:45.563Z,3.90
2022-08-14T20:11:00.193Z,4.50
2022-08-14T20:11:14.253Z,3.97
2022-08-14T20:13:50.372Z,4.22
2022-08-14T20:16:31.999Z,4.00
2022-08-14T20:19:00.435Z,3.95
2022-08-14T20:21:34.359Z,4.10
2022-08-14T20:24:02.849Z,4.00
2022-08-14T20:26:36.627Z,3.72
2022-08-14T20:29:06.984Z,4.20
2022-08-14T20:31:38.540Z,4.03
2022-08-14T20:34:07.048Z,4.13
2022-08-14T20:36:35.598Z,4.10
2022-08-14T20:39:04.147Z,3.90
2022-08-14T20:41:33.566Z,4.07
2022-08-14T20:44:21.018Z,4.10
2022-08-14T20:46:56.585Z,4.10
2022-08-14T20:52:19.813Z,3.67
2022-08-14T20:54:51.202Z,4.07
2022-08-14T20:57:19.509Z,4.18
2022-08-14T20:59:50.315Z,3.85
2022-08-14T21:02:28.457Z,3.75
2022-08-14T21:04:58.166Z,3.72
2022-08-14T21:07:36.091Z,4.20
2022-08-14T21:10:33.603Z,4.25
2022-08-14T21:13:11.911Z,3.85
2022-08-14T21:15:41.556Z,4.10
2022-08-14T21:18:09.865Z,3.67
2022-08-14T21:20:37.911Z,3.90
2022-08-14T21:23:06.887Z,3.92
2022-08-14T21:25:35.138Z,3.80
2022-08-14T21:28:03.993Z,3.90
2022-08-14T21:30:46.504Z,3.65
2022-08-14T21:33:15.764Z,3.88
2022-08-14T21:35:45.657Z,3.60
2022-08-14T21:38:16.861Z,3.42
2022-08-14T21:40:46.670Z,3.50
2022-08-14T21:43:17.364Z,3.78
2022-08-14T21:45:51.630Z,3.60
2022-08-14T21:48:21.701Z,3.70
2022-08-14T21:51:02.198Z,3.80
2022-08-14T21:53:58.708Z,3.95
2022-08-14T21:56:38.169Z,3.58
2022-08-14T21:59:06.444Z,3.60
2022-08-14T22:02:00.399Z,3.75
2022-08-14T22:04:33.426Z,3.80
2022-08-14T22:07:02.398Z,3.78
2022-08-14T22:09:36.082Z,3.90
2022-08-14T22:12:06.654Z,3.80
2022-08-14T22:14:43.643Z,3.85
2022-08-14T22:17:12.541Z,3.35
2022-08-14T22:19:43.307Z,3.58
2022-08-14T22:22:21.983Z,3.75
2022-08-14T22:24:54.033Z,3.63
2022-08-14T22:27:29.476Z,3.45
2022-08-14T22:29:58.902Z,3.45
2022-08-14T22:32:35.445Z,3.72
2022-08-14T22:35:15.727Z,3.50
2022-08-14T22:37:44.840Z,3.65
2022-08-14T22:40:46.744Z,3.30
2022-08-14T22:43:07.877Z,3.50
2022-08-14T22:45:36.538Z,3.35
2022-08-14T22:48:05.692Z,3.35
2022-08-14T22:50:48.806Z,3.30
2022-08-14T22:53:16.915Z,3.45
2022-08-14T22:55:47.712Z,3.95
2022-08-14T22:58:19.662Z,3.63
2022-08-14T23:01:01.513Z,3.83
2022-08-14T23:03:34.049Z,3.80
2022-08-14T23:07:04.185Z,3.35
2022-08-14T23:08:58.978Z,3.88
2022-08-14T23:11:29.337Z,3.63
2022-08-14T23:13:57.070Z,3.50
2022-08-14T23:16:28.853Z,3.53
2022-08-14T23:18:57.014Z,3.47
2022-08-14T23:21:28.876Z,3.50
2022-08-14T23:23:57.039Z,3.38
2022-08-14T23:26:49.236Z,3.55
2022-08-14T23:29:12.528Z,3.42
2022-08-14T23:31:40.261Z,3.78
2022-08-14T23:34:08.646Z,3.40
2022-08-14T23:36:37.528Z,3.67
2022-08-14T23:39:21.029Z,3.50
2022-08-14T23:41:53.722Z,3.70
2022-08-14T23:44:21.825Z,3.22
2022-08-14T23:46:56.978Z,3.40
2022-08-14T23:49:56.624Z,3.50
2022-08-14T23:53:06.244Z,3.33
2022-08-14T23:55:06.578Z,3.42
2022-08-14T23:57:43.917Z,3.70
